sensor_id;sensor_type;location;lat;lon;timestamp;P1;durP1;ratioP1;P2;durP2;ratioP2
67516;SDS011;68821;59.134;37.894;2024-03-06T00:00:19;27.58;;;5.32;;
67516;SDS011;68821;59.134;37.894;2024-03-06T00:02:45;21.35;;;5.50;;
67516;SDS011;68821;59.134;37.894;2024-03-06T00:05:11;21.35;;;6.25;;
67516;SDS011;68821;59.134;37.894;2024-03-06T00:07:38;24.90;;;5.70;;
67516;SDS011;68821;59.134;37.894;2024-03-06T00:10:04;28.38;;;6.03;;
67516;SDS011;68821;59.134;37.894;2024-03-06T00:12:32;25.52;;;5.57;;
67516;SDS011;68821;59.134;37.894;2024-03-06T00:14:58;24.88;;;6.63;;
67516;SDS011;68821;59.134;37.894;2024-03-06T00:17:27;18.58;;;4.82;;
67516;SDS011;68821;59.134;37.894;2024-03-06T00:19:53;25.92;;;5.85;;
67516;SDS011;68821;59.134;37.894;2024-03-06T00:22:19;43.92;;;7.03;;
67516;SDS011;68821;59.134;37.894;2024-03-06T00:24:46;23.33;;;6.50;;
67516;SDS011;68821;59.134;37.894;2024-03-06T00:27:13;23.83;;;6.53;;
67516;SDS011;68821;59.134;37.894;2024-03-06T00:29:39;15.95;;;5.95;;
67516;SDS011;68821;59.134;37.894;2024-03-06T00:32:05;22.88;;;6.80;;
67516;SDS011;68821;59.134;37.894;2024-03-06T00:34:31;25.25;;;6.93;;
67516;SDS011;68821;59.134;37.894;2024-03-06T00:36:57;14.95;;;4.97;;
67516;SDS011;68821;59.134;37.894;2024-03-06T00:39:23;17.88;;;5.18;;
67516;SDS011;68821;59.134;37.894;2024-03-06T00:41:50;13.63;;;4.57;;
67516;SDS011;68821;59.134;37.894;2024-03-06T00:44:16;17.83;;;4.65;;
67516;SDS011;68821;59.134;37.894;2024-03-06T00:46:42;8.95;;;3.25;;
67516;SDS011;68821;59.134;37.894;2024-03-06T00:49:09;13.18;;;4.57;;
67516;SDS011;68821;59.134;37.894;2024-03-06T00:51:34;19.52;;;5.80;;
67516;SDS011;68821;59.134;37.894;2024-03-06T00:54:02;19.83;;;5.25;;
67516;SDS011;68821;59.134;37.894;2024-03-06T00:56:30;13.82;;;4.90;;
67516;SDS011;68821;59.134;37.894;2024-03-06T00:58:56;20.27;;;3.72;;
67516;SDS011;68821;59.134;37.894;2024-03-06T01:01:22;28.75;;;5.97;;
67516;SDS011;68821;59.134;37.894;2024-03-06T01:03:48;15.25;;;4.78;;
67516;SDS011;68821;59.134;37.894;2024-03-06T01:06:14;19.52;;;5.45;;
67516;SDS011;68821;59.134;37.894;2024-03-06T01:08:40;28.77;;;5.88;;
67516;SDS011;68821;59.134;37.894;2024-03-06T01:11:06;9.85;;;4.63;;
67516;SDS011;68821;59.134;37.894;2024-03-06T01:13:32;13.85;;;5.07;;
67516;SDS011;68821;59.134;37.894;2024-03-06T01:15:58;14.85;;;4.30;;
67516;SDS011;68821;59.134;37.894;2024-03-06T01:18:24;15.57;;;3.95;;
67516;SDS011;68821;59.134;37.894;2024-03-06T01:20:50;10.75;;;3.55;;
67516;SDS011;68821;59.134;37.894;2024-03-06T01:23:16;9.65;;;3.10;;
67516;SDS011;68821;59.134;37.894;2024-03-06T01:25:42;8.15;;;3.20;;
67516;SDS011;68821;59.134;37.894;2024-03-06T01:28:08;10.93;;;3.97;;
67516;SDS011;68821;59.134;37.894;2024-03-06T01:30:34;8.90;;;3.30;;
67516;SDS011;68821;59.134;37.894;2024-03-06T01:33:00;14.32;;;3.67;;
67516;SDS011;68821;59.134;37.894;2024-03-06T01:35:26;10.98;;;3.50;;
67516;SDS011;68821;59.134;37.894;2024-03-06T01:37:52;18.25;;;3.58;;
67516;SDS011;68821;59.134;37.894;2024-03-06T01:40:18;9.35;;;3.92;;
67516;SDS011;68821;59.134;37.894;2024-03-06T01:42:46;11.80;;;3.75;;
67516;SDS011;68821;59.134;37.894;2024-03-06T01:45:14;14.35;;;3.97;;
67516;SDS011;68821;59.134;37.894;2024-03-06T01:47:40;10.82;;;3.47;;
67516;SDS011;68821;59.134;37.894;2024-03-06T01:50:06;8.10;;;3.70;;
67516;SDS011;68821;59.134;37.894;2024-03-06T01:52:35;15.90;;;3.30;;
67516;SDS011;68821;59.134;37.894;2024-03-06T01:55:02;18.30;;;3.80;;
67516;SDS011;68821;59.134;37.894;2024-03-06T01:57:30;7.40;;;2.88;;
67516;SDS011;68821;59.134;37.894;2024-03-06T01:59:57;13.80;;;3.63;;
67516;SDS011;68821;59.134;37.894;2024-03-06T02:02:23;8.43;;;4.15;;
67516;SDS011;68821;59.134;37.894;2024-03-06T02:04:49;9.55;;;3.13;;
67516;SDS011;68821;59.134;37.894;2024-03-06T02:07:15;12.70;;;2.80;;
67516;SDS011;68821;59.134;37.894;2024-03-06T02:09:42;13.57;;;2.88;;
67516;SDS011;68821;59.134;37.894;2024-03-06T02:12:08;10.32;;;3.85;;
67516;SDS011;68821;59.134;37.894;2024-03-06T02:14:37;14.45;;;3.30;;
67516;SDS011;68821;59.134;37.894;2024-03-06T02:17:04;6.03;;;2.65;;
67516;SDS011;68821;59.134;37.894;2024-03-06T02:19:39;9.15;;;2.53;;
67516;SDS011;68821;59.134;37.894;2024-03-06T02:22:07;15.95;;;3.03;;
67516;SDS011;68821;59.134;37.894;2024-03-06T02:24:34;12.52;;;2.80;;
67516;SDS011;68821;59.134;37.894;2024-03-06T02:27:00;14.60;;;2.67;;
67516;SDS011;68821;59.134;37.894;2024-03-06T02:29:26;14.43;;;2.67;;
67516;SDS011;68821;59.134;37.894;2024-03-06T02:31:52;10.75;;;2.92;;
67516;SDS011;68821;59.134;37.894;2024-03-06T02:34:18;23.33;;;3.22;;
67516;SDS011;68821;59.134;37.894;2024-03-06T02:36:45;9.75;;;2.47;;
67516;SDS011;68821;59.134;37.894;2024-03-06T02:39:11;11.90;;;2.20;;
67516;SDS011;68821;59.134;37.894;2024-03-06T02:41:37;17.83;;;3.10;;
67516;SDS011;68821;59.134;37.894;2024-03-06T02:44:03;10.23;;;2.10;;
67516;SDS011;68821;59.134;37.894;2024-03-06T02:46:29;12.93;;;2.20;;
67516;SDS011;68821;59.134;37.894;2024-03-06T02:48:55;10.63;;;1.77;;
67516;SDS011;68821;59.134;37.894;2024-03-06T02:51:21;5.85;;;1.92;;
67516;SDS011;68821;59.134;37.894;2024-03-06T02:53:47;22.30;;;4.25;;
67516;SDS011;68821;59.134;37.894;2024-03-06T02:56:18;6.47;;;1.50;;
67516;SDS011;68821;59.134;37.894;2024-03-06T02:58:45;9.25;;;2.22;;
67516;SDS011;68821;59.134;37.894;2024-03-06T03:01:11;4.18;;;1.50;;
67516;SDS011;68821;59.134;37.894;2024-03-06T03:03:40;7.38;;;1.40;;
67516;SDS011;68821;59.134;37.894;2024-03-06T03:06:07;7.45;;;2.03;;
67516;SDS011;68821;59.134;37.894;2024-03-06T03:08:33;10.38;;;2.08;;
67516;SDS011;68821;59.134;37.894;2024-03-06T03:10:59;15.00;;;3.33;;
67516;SDS011;68821;59.134;37.894;2024-03-06T03:13:25;7.18;;;2.97;;
67516;SDS011;68821;59.134;37.894;2024-03-06T03:15:51;12.70;;;3.55;;
67516;SDS011;68821;59.134;37.894;2024-03-06T03:18:17;8.48;;;2.65;;
67516;SDS011;68821;59.134;37.894;2024-03-06T03:20:43;23.77;;;3.83;;
67516;SDS011;68821;59.134;37.894;2024-03-06T03:23:09;11.05;;;3.33;;
67516;SDS011;68821;59.134;37.894;2024-03-06T03:25:37;8.98;;;4.00;;
67516;SDS011;68821;59.134;37.894;2024-03-06T03:28:04;10.75;;;3.25;;
67516;SDS011;68821;59.134;37.894;2024-03-06T03:30:30;11.95;;;4.03;;
67516;SDS011;68821;59.134;37.894;2024-03-06T03:32:57;14.07;;;4.00;;
67516;SDS011;68821;59.134;37.894;2024-03-06T03:35:24;10.45;;;3.47;;
67516;SDS011;68821;59.134;37.894;2024-03-06T03:37:53;13.35;;;3.17;;
67516;SDS011;68821;59.134;37.894;2024-03-06T03:40:21;7.57;;;2.58;;
67516;SDS011;68821;59.134;37.894;2024-03-06T03:42:47;13.10;;;3.22;;
67516;SDS011;68821;59.134;37.894;2024-03-06T03:45:13;11.43;;;3.15;;
67516;SDS011;68821;59.134;37.894;2024-03-06T03:47:40;9.45;;;3.08;;
67516;SDS011;68821;59.134;37.894;2024-03-06T03:50:08;9.55;;;3.22;;
67516;SDS011;68821;59.134;37.894;2024-03-06T03:52:35;16.50;;;2.88;;
67516;SDS011;68821;59.134;37.894;2024-03-06T03:55:01;13.93;;;2.42;;
67516;SDS011;68821;59.134;37.894;2024-03-06T03:57:27;6.93;;;2.50;;
67516;SDS011;68821;59.134;37.894;2024-03-06T03:59:53;12.90;;;3.70;;
67516;SDS011;68821;59.134;37.894;2024-03-06T04:02:19;21.00;;;3.20;;
67516;SDS011;68821;59.134;37.894;2024-03-06T04:04:45;9.68;;;2.28;;
67516;SDS011;68821;59.134;37.894;2024-03-06T04:07:11;7.85;;;2.58;;
67516;SDS011;68821;59.134;37.894;2024-03-06T04:09:37;13.95;;;3.65;;
67516;SDS011;68821;59.134;37.894;2024-03-06T04:12:04;7.75;;;3.33;;
67516;SDS011;68821;59.134;37.894;2024-03-06T04:14:30;6.05;;;2.47;;
67516;SDS011;68821;59.134;37.894;2024-03-06T04:16:56;10.10;;;1.75;;
67516;SDS011;68821;59.134;37.894;2024-03-06T04:19:22;5.63;;;1.80;;
67516;SDS011;68821;59.134;37.894;2024-03-06T04:21:48;6.43;;;2.38;;
67516;SDS011;68821;59.134;37.894;2024-03-06T04:24:14;4.75;;;1.98;;
67516;SDS011;68821;59.134;37.894;2024-03-06T04:26:40;11.85;;;2.30;;
67516;SDS011;68821;59.134;37.894;2024-03-06T04:29:06;8.40;;;2.40;;
67516;SDS011;68821;59.134;37.894;2024-03-06T04:31:32;7.05;;;2.20;;
67516;SDS011;68821;59.134;37.894;2024-03-06T04:34:00;5.75;;;1.75;;
67516;SDS011;68821;59.134;37.894;2024-03-06T04:36:26;4.68;;;2.10;;
67516;SDS011;68821;59.134;37.894;2024-03-06T04:38:52;8.27;;;2.03;;
67516;SDS011;68821;59.134;37.894;2024-03-06T04:41:18;9.20;;;2.22;;
67516;SDS011;68821;59.134;37.894;2024-03-06T04:43:45;5.65;;;1.80;;
67516;SDS011;68821;59.134;37.894;2024-03-06T04:46:14;14.05;;;2.03;;
67516;SDS011;68821;59.134;37.894;2024-03-06T04:48:40;6.53;;;1.77;;
67516;SDS011;68821;59.134;37.894;2024-03-06T04:51:06;9.88;;;1.92;;
67516;SDS011;68821;59.134;37.894;2024-03-06T04:53:32;10.20;;;2.75;;
67516;SDS011;68821;59.134;37.894;2024-03-06T04:55:58;5.70;;;2.17;;
67516;SDS011;68821;59.134;37.894;2024-03-06T04:58:24;9.00;;;2.75;;
67516;SDS011;68821;59.134;37.894;2024-03-06T05:00:50;7.18;;;2.70;;
67516;SDS011;68821;59.134;37.894;2024-03-06T05:03:16;8.65;;;3.08;;
67516;SDS011;68821;59.134;37.894;2024-03-06T05:05:42;15.85;;;4.50;;
67516;SDS011;68821;59.134;37.894;2024-03-06T05:08:08;13.65;;;4.47;;
67516;SDS011;68821;59.134;37.894;2024-03-06T05:10:35;13.85;;;2.83;;
67516;SDS011;68821;59.134;37.894;2024-03-06T05:13:01;11.82;;;3.40;;
67516;SDS011;68821;59.134;37.894;2024-03-06T05:15:28;15.45;;;3.67;;
67516;SDS011;68821;59.134;37.894;2024-03-06T05:17:54;13.88;;;3.30;;
67516;SDS011;68821;59.134;37.894;2024-03-06T05:20:21;17.48;;;3.35;;
67516;SDS011;68821;59.134;37.894;2024-03-06T05:22:47;9.13;;;2.85;;
67516;SDS011;68821;59.134;37.894;2024-03-06T05:25:13;15.40;;;3.15;;
67516;SDS011;68821;59.134;37.894;2024-03-06T05:27:39;18.50;;;3.70;;
67516;SDS011;68821;59.134;37.894;2024-03-06T05:30:05;12.45;;;4.60;;
67516;SDS011;68821;59.134;37.894;2024-03-06T05:32:31;12.10;;;3.00;;
67516;SDS011;68821;59.134;37.894;2024-03-06T05:34:57;10.25;;;3.05;;
67516;SDS011;68821;59.134;37.894;2024-03-06T05:37:24;15.23;;;3.38;;
67516;SDS011;68821;59.134;37.894;2024-03-06T05:39:50;11.85;;;2.70;;
67516;SDS011;68821;59.134;37.894;2024-03-06T05:42:16;15.50;;;2.58;;
67516;SDS011;68821;59.134;37.894;2024-03-06T05:44:42;25.05;;;3.83;;
67516;SDS011;68821;59.134;37.894;2024-03-06T05:47:08;13.90;;;3.10;;
67516;SDS011;68821;59.134;37.894;2024-03-06T05:49:34;13.75;;;3.55;;
67516;SDS011;68821;59.134;37.894;2024-03-06T05:52:00;8.85;;;2.35;;
67516;SDS011;68821;59.134;37.894;2024-03-06T05:54:26;20.88;;;3.92;;
67516;SDS011;68821;59.134;37.894;2024-03-06T05:56:53;12.30;;;3.35;;
67516;SDS011;68821;59.134;37.894;2024-03-06T05:59:19;18.67;;;3.97;;
67516;SDS011;68821;59.134;37.894;2024-03-06T06:01:45;12.48;;;4.40;;
67516;SDS011;68821;59.134;37.894;2024-03-06T06:04:12;13.38;;;4.35;;
67516;SDS011;68821;59.134;37.894;2024-03-06T06:06:39;19.13;;;5.53;;
67516;SDS011;68821;59.134;37.894;2024-03-06T06:09:07;22.75;;;5.05;;
67516;SDS011;68821;59.134;37.894;2024-03-06T06:11:38;21.30;;;4.07;;
67516;SDS011;68821;59.134;37.894;2024-03-06T06:14:04;20.90;;;3.00;;
67516;SDS011;68821;59.134;37.894;2024-03-06T06:16:37;25.48;;;3.20;;
67516;SDS011;68821;59.134;37.894;2024-03-06T06:19:06;15.85;;;3.85;;
67516;SDS011;68821;59.134;37.894;2024-03-06T06:21:32;14.45;;;3.55;;
67516;SDS011;68821;59.134;37.894;2024-03-06T06:24:01;18.55;;;4.25;;
67516;SDS011;68821;59.134;37.894;2024-03-06T06:26:29;11.57;;;3.45;;
67516;SDS011;68821;59.134;37.894;2024-03-06T06:28:56;19.23;;;4.03;;
67516;SDS011;68821;59.134;37.894;2024-03-06T06:31:23;15.57;;;3.22;;
67516;SDS011;68821;59.134;37.894;2024-03-06T06:33:50;6.88;;;2.35;;
67516;SDS011;68821;59.134;37.894;2024-03-06T06:36:17;27.98;;;3.47;;
67516;SDS011;68821;59.134;37.894;2024-03-06T06:38:43;15.95;;;3.33;;
67516;SDS011;68821;59.134;37.894;2024-03-06T06:41:10;22.25;;;3.90;;
67516;SDS011;68821;59.134;37.894;2024-03-06T06:43:36;18.15;;;3.80;;
67516;SDS011;68821;59.134;37.894;2024-03-06T06:46:02;19.73;;;3.83;;
67516;SDS011;68821;59.134;37.894;2024-03-06T06:48:30;28.63;;;4.05;;
67516;SDS011;68821;59.134;37.894;2024-03-06T06:50:56;17.85;;;2.92;;
67516;SDS011;68821;59.134;37.894;2024-03-06T06:53:22;18.83;;;3.72;;
67516;SDS011;68821;59.134;37.894;2024-03-06T06:55:48;14.75;;;3.00;;
67516;SDS011;68821;59.134;37.894;2024-03-06T06:58:15;21.92;;;3.42;;
67516;SDS011;68821;59.134;37.894;2024-03-06T07:00:41;18.45;;;3.08;;
67516;SDS011;68821;59.134;37.894;2024-03-06T07:03:07;13.10;;;2.78;;
67516;SDS011;68821;59.134;37.894;2024-03-06T07:05:33;20.38;;;2.80;;
67516;SDS011;68821;59.134;37.894;2024-03-06T07:07:59;14.50;;;3.03;;
67516;SDS011;68821;59.134;37.894;2024-03-06T07:10:25;14.73;;;3.28;;
67516;SDS011;68821;59.134;37.894;2024-03-06T07:12:51;14.10;;;3.25;;
67516;SDS011;68821;59.134;37.894;2024-03-06T07:15:17;13.43;;;3.47;;
67516;SDS011;68821;59.134;37.894;2024-03-06T07:17:43;13.25;;;3.13;;
67516;SDS011;68821;59.134;37.894;2024-03-06T07:20:09;12.80;;;3.45;;
67516;SDS011;68821;59.134;37.894;2024-03-06T07:22:37;16.17;;;4.60;;
67516;SDS011;68821;59.134;37.894;2024-03-06T07:25:03;9.93;;;2.72;;
67516;SDS011;68821;59.134;37.894;2024-03-06T07:27:31;12.70;;;3.42;;
67516;SDS011;68821;59.134;37.894;2024-03-06T07:29:57;13.02;;;2.92;;
67516;SDS011;68821;59.134;37.894;2024-03-06T07:32:23;10.68;;;2.80;;
67516;SDS011;68821;59.134;37.894;2024-03-06T07:34:50;21.38;;;3.53;;
67516;SDS011;68821;59.134;37.894;2024-03-06T07:37:16;21.92;;;3.53;;
67516;SDS011;68821;59.134;37.894;2024-03-06T07:39:42;9.68;;;3.03;;
67516;SDS011;68821;59.134;37.894;2024-03-06T07:42:08;13.07;;;3.33;;
67516;SDS011;68821;59.134;37.894;2024-03-06T07:44:36;12.90;;;2.50;;
67516;SDS011;68821;59.134;37.894;2024-03-06T07:47:02;11.15;;;2.58;;
67516;SDS011;68821;59.134;37.894;2024-03-06T07:49:29;14.23;;;2.92;;
67516;SDS011;68821;59.134;37.894;2024-03-06T07:51:55;14.82;;;2.45;;
67516;SDS011;68821;59.134;37.894;2024-03-06T07:54:22;14.38;;;3.72;;
67516;SDS011;68821;59.134;37.894;2024-03-06T07:56:48;16.67;;;3.60;;
67516;SDS011;68821;59.134;37.894;2024-03-06T07:59:14;15.88;;;3.72;;
67516;SDS011;68821;59.134;37.894;2024-03-06T08:04:07;13.48;;;3.40;;
67516;SDS011;68821;59.134;37.894;2024-03-06T08:06:33;11.88;;;2.42;;
67516;SDS011;68821;59.134;37.894;2024-03-06T08:09:02;15.05;;;2.80;;
67516;SDS011;68821;59.134;37.894;2024-03-06T08:11:30;20.52;;;3.38;;
67516;SDS011;68821;59.134;37.894;2024-03-06T08:13:57;10.40;;;2.70;;
67516;SDS011;68821;59.134;37.894;2024-03-06T08:16:24;15.98;;;2.53;;
67516;SDS011;68821;59.134;37.894;2024-03-06T08:18:50;8.02;;;2.45;;
67516;SDS011;68821;59.134;37.894;2024-03-06T08:21:16;10.48;;;3.03;;
67516;SDS011;68821;59.134;37.894;2024-03-06T08:23:42;16.25;;;2.95;;
67516;SDS011;68821;59.134;37.894;2024-03-06T08:28:36;13.80;;;3.22;;
67516;SDS011;68821;59.134;37.894;2024-03-06T08:31:02;10.85;;;3.50;;
67516;SDS011;68821;59.134;37.894;2024-03-06T08:33:28;13.50;;;4.20;;
67516;SDS011;68821;59.134;37.894;2024-03-06T08:35:54;14.85;;;3.30;;
67516;SDS011;68821;59.134;37.894;2024-03-06T08:38:21;11.30;;;3.00;;
67516;SDS011;68821;59.134;37.894;2024-03-06T08:40:46;11.77;;;3.15;;
67516;SDS011;68821;59.134;37.894;2024-03-06T08:43:14;18.77;;;4.35;;
67516;SDS011;68821;59.134;37.894;2024-03-06T08:45:41;25.80;;;4.15;;
67516;SDS011;68821;59.134;37.894;2024-03-06T08:48:07;15.95;;;4.43;;
67516;SDS011;68821;59.134;37.894;2024-03-06T08:50:34;25.00;;;4.03;;
67516;SDS011;68821;59.134;37.894;2024-03-06T08:53:00;16.27;;;3.63;;
67516;SDS011;68821;59.134;37.894;2024-03-06T08:55:29;13.93;;;4.22;;
67516;SDS011;68821;59.134;37.894;2024-03-06T08:57:55;21.48;;;4.88;;
67516;SDS011;68821;59.134;37.894;2024-03-06T09:00:21;27.08;;;5.72;;
67516;SDS011;68821;59.134;37.894;2024-03-06T09:02:47;24.67;;;5.30;;
67516;SDS011;68821;59.134;37.894;2024-03-06T09:05:13;17.52;;;4.85;;
67516;SDS011;68821;59.134;37.894;2024-03-06T09:07:44;27.65;;;4.78;;
67516;SDS011;68821;59.134;37.894;2024-03-06T09:10:11;20.42;;;4.97;;
67516;SDS011;68821;59.134;37.894;2024-03-06T09:12:37;13.23;;;4.68;;
67516;SDS011;68821;59.134;37.894;2024-03-06T09:15:03;24.13;;;3.67;;
67516;SDS011;68821;59.134;37.894;2024-03-06T09:17:30;20.23;;;3.20;;
67516;SDS011;68821;59.134;37.894;2024-03-06T09:19:56;13.90;;;3.33;;
67516;SDS011;68821;59.134;37.894;2024-03-06T09:22:22;15.30;;;3.40;;
67516;SDS011;68821;59.134;37.894;2024-03-06T09:24:48;22.30;;;4.03;;
67516;SDS011;68821;59.134;37.894;2024-03-06T09:27:15;14.25;;;4.15;;
67516;SDS011;68821;59.134;37.894;2024-03-06T09:29:42;16.58;;;4.63;;
67516;SDS011;68821;59.134;37.894;2024-03-06T09:32:08;22.20;;;4.03;;
67516;SDS011;68821;59.134;37.894;2024-03-06T09:34:34;19.30;;;5.15;;
67516;SDS011;68821;59.134;37.894;2024-03-06T09:37:00;20.45;;;4.55;;
67516;SDS011;68821;59.134;37.894;2024-03-06T09:39:26;17.10;;;4.70;;
67516;SDS011;68821;59.134;37.894;2024-03-06T09:41:55;14.95;;;4.57;;
67516;SDS011;68821;59.134;37.894;2024-03-06T09:44:22;14.32;;;3.45;;
67516;SDS011;68821;59.134;37.894;2024-03-06T09:46:49;8.85;;;2.70;;
67516;SDS011;68821;59.134;37.894;2024-03-06T09:49:15;12.13;;;3.35;;
67516;SDS011;68821;59.134;37.894;2024-03-06T09:51:46;9.98;;;3.55;;
67516;SDS011;68821;59.134;37.894;2024-03-06T09:54:15;10.43;;;3.55;;
67516;SDS011;68821;59.134;37.894;2024-03-06T09:56:43;15.43;;;3.42;;
67516;SDS011;68821;59.134;37.894;2024-03-06T09:59:09;17.38;;;3.33;;
67516;SDS011;68821;59.134;37.894;2024-03-06T10:01:39;23.83;;;4.43;;
67516;SDS011;68821;59.134;37.894;2024-03-06T10:04:20;14.63;;;4.03;;
67516;SDS011;68821;59.134;37.894;2024-03-06T10:06:47;7.78;;;2.70;;
67516;SDS011;68821;59.134;37.894;2024-03-06T10:09:18;17.17;;;2.78;;
67516;SDS011;68821;59.134;37.894;2024-03-06T10:11:45;12.77;;;3.00;;
67516;SDS011;68821;59.134;37.894;2024-03-06T10:14:11;13.45;;;3.20;;
67516;SDS011;68821;59.134;37.894;2024-03-06T10:16:37;20.33;;;4.28;;
67516;SDS011;68821;59.134;37.894;2024-03-06T10:19:17;7.38;;;2.15;;
67516;SDS011;68821;59.134;37.894;2024-03-06T10:21:46;10.30;;;2.10;;
67516;SDS011;68821;59.134;37.894;2024-03-06T10:24:23;17.45;;;2.50;;
67516;SDS011;68821;59.134;37.894;2024-03-06T10:26:51;17.58;;;3.15;;
67516;SDS011;68821;59.134;37.894;2024-03-06T10:29:20;22.70;;;3.47;;
67516;SDS011;68821;59.134;37.894;2024-03-06T10:31:47;12.20;;;3.22;;
67516;SDS011;68821;59.134;37.894;2024-03-06T10:34:24;14.48;;;2.42;;
67516;SDS011;68821;59.134;37.894;2024-03-06T10:36:54;11.75;;;1.70;;
67516;SDS011;68821;59.134;37.894;2024-03-06T10:39:21;15.63;;;2.00;;
67516;SDS011;68821;59.134;37.894;2024-03-06T10:41:55;12.07;;;1.90;;
67516;SDS011;68821;59.134;37.894;2024-03-06T10:44:23;6.03;;;1.65;;
67516;SDS011;68821;59.134;37.894;2024-03-06T10:47:00;12.43;;;2.20;;
67516;SDS011;68821;59.134;37.894;2024-03-06T10:49:28;16.27;;;3.20;;
67516;SDS011;68821;59.134;37.894;2024-03-06T10:52:02;18.08;;;3.10;;
67516;SDS011;68821;59.134;37.894;2024-03-06T10:54:32;15.65;;;3.45;;
67516;SDS011;68821;59.134;37.894;2024-03-06T10:57:04;17.50;;;4.43;;
67516;SDS011;68821;59.134;37.894;2024-03-06T10:59:31;20.27;;;4.22;;
67516;SDS011;68821;59.134;37.894;2024-03-06T11:01:57;22.23;;;3.15;;
67516;SDS011;68821;59.134;37.894;2024-03-06T11:04:28;17.60;;;3.45;;
67516;SDS011;68821;59.134;37.894;2024-03-06T11:06:56;12.45;;;3.17;;
67516;SDS011;68821;59.134;37.894;2024-03-06T11:09:25;17.77;;;3.38;;
67516;SDS011;68821;59.134;37.894;2024-03-06T11:11:52;13.07;;;2.92;;
67516;SDS011;68821;59.134;37.894;2024-03-06T11:14:23;18.95;;;3.10;;
67516;SDS011;68821;59.134;37.894;2024-03-06T11:19:25;22.25;;;4.65;;
67516;SDS011;68821;59.134;37.894;2024-03-06T11:21:52;18.05;;;4.63;;
67516;SDS011;68821;59.134;37.894;2024-03-06T11:24:18;24.77;;;5.75;;
67516;SDS011;68821;59.134;37.894;2024-03-06T11:26:56;24.45;;;4.82;;
67516;SDS011;68821;59.134;37.894;2024-03-06T11:29:24;14.95;;;3.70;;
67516;SDS011;68821;59.134;37.894;2024-03-06T11:32:07;17.35;;;3.95;;
67516;SDS011;68821;59.134;37.894;2024-03-06T11:34:34;23.48;;;4.40;;
67516;SDS011;68821;59.134;37.894;2024-03-06T11:37:05;16.65;;;3.22;;
67516;SDS011;68821;59.134;37.894;2024-03-06T11:39:34;16.55;;;3.42;;
67516;SDS011;68821;59.134;37.894;2024-03-06T11:44:28;17.13;;;3.03;;
67516;SDS011;68821;59.134;37.894;2024-03-06T11:46:59;18.15;;;3.88;;
67516;SDS011;68821;59.134;37.894;2024-03-06T11:49:27;7.43;;;1.85;;
67516;SDS011;68821;59.134;37.894;2024-03-06T11:52:03;5.43;;;1.70;;
67516;SDS011;68821;59.134;37.894;2024-03-06T11:54:31;7.53;;;2.20;;
67516;SDS011;68821;59.134;37.894;2024-03-06T11:56:59;11.35;;;2.60;;
67516;SDS011;68821;59.134;37.894;2024-03-06T11:59:31;9.15;;;1.73;;
67516;SDS011;68821;59.134;37.894;2024-03-06T12:01:59;10.20;;;2.13;;
67516;SDS011;68821;59.134;37.894;2024-03-06T12:04:30;5.57;;;2.00;;
67516;SDS011;68821;59.134;37.894;2024-03-06T12:06:58;5.35;;;2.33;;
67516;SDS011;68821;59.134;37.894;2024-03-06T12:09:25;9.32;;;2.33;;
67516;SDS011;68821;59.134;37.894;2024-03-06T12:11:52;5.68;;;1.50;;
67516;SDS011;68821;59.134;37.894;2024-03-06T12:14:19;7.20;;;1.85;;
67516;SDS011;68821;59.134;37.894;2024-03-06T12:16:55;4.20;;;1.48;;
67516;SDS011;68821;59.134;37.894;2024-03-06T12:19:22;9.65;;;2.45;;
67516;SDS011;68821;59.134;37.894;2024-03-06T12:21:48;17.88;;;3.78;;
67516;SDS011;68821;59.134;37.894;2024-03-06T12:24:16;9.70;;;2.50;;
67516;SDS011;68821;59.134;37.894;2024-03-06T12:26:46;5.03;;;2.13;;
67516;SDS011;68821;59.134;37.894;2024-03-06T12:29:18;10.50;;;2.88;;
67516;SDS011;68821;59.134;37.894;2024-03-06T12:31:44;14.68;;;3.22;;
67516;SDS011;68821;59.134;37.894;2024-03-06T12:34:13;10.57;;;3.03;;
67516;SDS011;68821;59.134;37.894;2024-03-06T12:36:42;12.07;;;2.33;;
67516;SDS011;68821;59.134;37.894;2024-03-06T12:39:08;19.83;;;2.53;;
67516;SDS011;68821;59.134;37.894;2024-03-06T12:41:39;18.48;;;2.72;;
67516;SDS011;68821;59.134;37.894;2024-03-06T12:44:05;17.50;;;3.63;;
67516;SDS011;68821;59.134;37.894;2024-03-06T12:46:34;9.10;;;2.42;;
67516;SDS011;68821;59.134;37.894;2024-03-06T12:49:00;8.15;;;2.00;;
67516;SDS011;68821;59.134;37.894;2024-03-06T12:51:27;6.35;;;1.63;;
67516;SDS011;68821;59.134;37.894;2024-03-06T12:53:52;6.15;;;1.67;;
67516;SDS011;68821;59.134;37.894;2024-03-06T12:56:19;6.88;;;1.60;;
67516;SDS011;68821;59.134;37.894;2024-03-06T12:58:45;7.55;;;2.55;;
67516;SDS011;68821;59.134;37.894;2024-03-06T13:01:11;6.32;;;1.98;;
67516;SDS011;68821;59.134;37.894;2024-03-06T13:03:37;7.95;;;2.60;;
67516;SDS011;68821;59.134;37.894;2024-03-06T13:06:03;5.60;;;2.00;;
67516;SDS011;68821;59.134;37.894;2024-03-06T13:08:30;6.82;;;2.47;;
67516;SDS011;68821;59.134;37.894;2024-03-06T13:10:57;8.98;;;2.50;;
67516;SDS011;68821;59.134;37.894;2024-03-06T13:13:23;10.90;;;3.45;;
67516;SDS011;68821;59.134;37.894;2024-03-06T13:15:54;11.55;;;3.05;;
67516;SDS011;68821;59.134;37.894;2024-03-06T13:18:20;15.88;;;4.53;;
67516;SDS011;68821;59.134;37.894;2024-03-06T13:20:46;20.52;;;5.85;;
67516;SDS011;68821;59.134;37.894;2024-03-06T13:23:12;18.42;;;5.18;;
67516;SDS011;68821;59.134;37.894;2024-03-06T13:25:38;15.52;;;4.80;;
67516;SDS011;68821;59.134;37.894;2024-03-06T13:28:05;8.43;;;2.70;;
67516;SDS011;68821;59.134;37.894;2024-03-06T13:30:31;7.28;;;1.67;;
67516;SDS011;68821;59.134;37.894;2024-03-06T13:33:00;5.40;;;1.50;;
67516;SDS011;68821;59.134;37.894;2024-03-06T13:35:26;5.65;;;1.80;;
67516;SDS011;68821;59.134;37.894;2024-03-06T13:37:54;4.50;;;1.40;;
67516;SDS011;68821;59.134;37.894;2024-03-06T13:40:20;4.82;;;1.70;;
67516;SDS011;68821;59.134;37.894;2024-03-06T13:42:46;8.45;;;2.40;;
67516;SDS011;68821;59.134;37.894;2024-03-06T13:45:14;8.65;;;3.10;;
67516;SDS011;68821;59.134;37.894;2024-03-06T13:47:41;14.68;;;3.67;;
67516;SDS011;68821;59.134;37.894;2024-03-06T13:50:08;19.23;;;3.25;;
67516;SDS011;68821;59.134;37.894;2024-03-06T13:52:39;17.40;;;3.42;;
67516;SDS011;68821;59.134;37.894;2024-03-06T13:55:08;18.85;;;3.08;;
67516;SDS011;68821;59.134;37.894;2024-03-06T13:57:35;11.02;;;3.03;;
67516;SDS011;68821;59.134;37.894;2024-03-06T14:00:09;18.23;;;3.97;;
67516;SDS011;68821;59.134;37.894;2024-03-06T14:02:43;8.73;;;2.88;;
67516;SDS011;68821;59.134;37.894;2024-03-06T14:05:11;11.50;;;3.50;;
67516;SDS011;68821;59.134;37.894;2024-03-06T14:07:38;7.18;;;2.75;;
67516;SDS011;68821;59.134;37.894;2024-03-06T14:10:04;9.18;;;3.33;;
67516;SDS011;68821;59.134;37.894;2024-03-06T14:12:30;8.45;;;3.33;;
67516;SDS011;68821;59.134;37.894;2024-03-06T14:14:56;12.07;;;3.10;;
67516;SDS011;68821;59.134;37.894;2024-03-06T14:17:22;7.63;;;3.22;;
67516;SDS011;68821;59.134;37.894;2024-03-06T14:19:49;8.18;;;3.00;;
67516;SDS011;68821;59.134;37.894;2024-03-06T14:22:15;12.13;;;2.95;;
67516;SDS011;68821;59.134;37.894;2024-03-06T14:24:42;11.63;;;3.03;;
67516;SDS011;68821;59.134;37.894;2024-03-06T14:27:08;12.63;;;2.53;;
67516;SDS011;68821;59.134;37.894;2024-03-06T14:29:34;11.15;;;3.15;;
67516;SDS011;68821;59.134;37.894;2024-03-06T14:32:00;8.35;;;2.83;;
67516;SDS011;68821;59.134;37.894;2024-03-06T14:34:26;6.38;;;2.33;;